createdAt,value
2023-01-07T00:01:34.608Z,122.35
2023-01-07T00:04:03.808Z,120.97
2023-01-07T00:06:33.594Z,123.07
2023-01-07T00:09:01.571Z,130.02
2023-01-07T00:11:32.248Z,139.52
2023-01-07T00:14:01.244Z,125.72
2023-01-07T00:16:37.148Z,123.72
2023-01-07T00:19:05.805Z,118.00
2023-01-07T00:21:33.657Z,129.23
2023-01-07T00:24:03.801Z,158.75
2023-01-07T00:26:35.956Z,155.60
2023-01-07T00:29:04.460Z,144.82
2023-01-07T00:31:34.868Z,141.40
2023-01-07T00:34:02.560Z,124.93
2023-01-07T00:36:36.322Z,139.13
2023-01-07T00:39:17.593Z,137.07
2023-01-07T00:42:05.754Z,134.68
2023-01-07T00:44:34.060Z,149.90
2023-01-07T00:47:01.852Z,154.68
2023-01-07T00:49:29.746Z,151.60
2023-01-07T00:51:56.902Z,148.38
2023-01-07T00:54:24.157Z,149.82
2023-01-07T00:56:51.341Z,149.98
2023-01-07T00:59:18.451Z,142.65
2023-01-07T01:01:45.677Z,142.57
2023-01-07T01:04:12.828Z,151.70
2023-01-07T01:06:39.860Z,153.27
2023-01-07T01:09:07.021Z,161.25
2023-01-07T01:11:34.038Z,165.77
2023-01-07T01:14:01.119Z,167.32
2023-01-07T01:16:28.245Z,166.40
2023-01-07T01:18:55.359Z,162.18
2023-01-07T01:21:22.375Z,163.50
2023-01-07T01:23:49.451Z,150.68
2023-01-07T01:26:19.069Z,144.43
2023-01-07T01:28:46.319Z,162.82
2023-01-07T01:31:13.440Z,161.90
2023-01-07T01:33:40.680Z,162.80
2023-01-07T01:36:10.625Z,157.80
2023-01-07T01:38:38.150Z,168.15
2023-01-07T01:41:09.642Z,163.35
2023-01-07T01:43:40.278Z,134.95
2023-01-07T01:46:32.358Z,138.13
2023-01-07T01:49:16.904Z,127.47
2023-01-07T01:51:49.370Z,130.55
2023-01-07T01:54:17.773Z,134.07
2023-01-07T01:56:48.193Z,121.10
2023-01-07T01:59:19.893Z,128.98
2023-01-07T02:01:47.933Z,131.65
2023-01-07T02:04:19.911Z,125.88
2023-01-07T02:07:16.753Z,130.15
2023-01-07T02:09:43.982Z,127.45
2023-01-07T02:12:39.697Z,113.18
2023-01-07T02:15:12.111Z,121.47
2023-01-07T02:18:14.917Z,92.23
2023-01-07T02:20:57.068Z,120.55
2023-01-07T02:23:52.924Z,117.10
2023-01-07T02:26:36.917Z,116.22
2023-01-07T02:29:31.993Z,104.75
2023-01-07T02:32:25.101Z,105.65
2023-01-07T02:35:05.675Z,81.40
2023-01-07T02:38:14.257Z,89.00
2023-01-07T02:41:08.750Z,99.60
2023-01-07T02:43:49.405Z,101.18
2023-01-07T02:46:39.891Z,97.40
2023-01-07T02:49:16.821Z,99.57
2023-01-07T02:51:44.688Z,99.07
2023-01-07T02:54:25.228Z,98.80
2023-01-07T02:57:25.777Z,99.05
2023-01-07T03:00:42.549Z,96.05
2023-01-07T03:03:25.896Z,96.00
2023-01-07T03:06:24.464Z,92.70
2023-01-07T03:09:12.684Z,100.45
2023-01-07T03:11:49.215Z,98.93
2023-01-07T03:14:30.311Z,85.10
2023-01-07T03:17:03.133Z,89.38
2023-01-07T03:19:34.459Z,93.55
2023-01-07T03:22:05.575Z,95.03
2023-01-07T03:24:33.900Z,92.82
2023-01-07T03:27:03.942Z,83.03
2023-01-07T03:29:32.387Z,74.93
2023-01-07T03:32:12.826Z,77.63
2023-01-07T03:34:40.702Z,71.68
2023-01-07T03:37:11.867Z,70.75
2023-01-07T03:39:40.525Z,68.03
2023-01-07T03:42:28.112Z,70.82
2023-01-07T03:44:55.702Z,62.67
2023-01-07T03:47:25.808Z,70.25
2023-01-07T03:49:52.878Z,72.32
2023-01-07T03:52:20.012Z,80.03
2023-01-07T03:54:47.016Z,72.03
2023-01-07T03:57:13.998Z,72.70
2023-01-07T03:59:40.951Z,77.43
2023-01-07T04:02:08.094Z,83.00
2023-01-07T04:04:35.262Z,69.60
2023-01-07T04:07:02.296Z,70.82
2023-01-07T04:09:29.460Z,81.43
2023-01-07T04:11:56.574Z,64.28
2023-01-07T04:14:23.686Z,73.88
2023-01-07T04:16:51.401Z,73.32
2023-01-07T04:19:18.723Z,79.00
2023-01-07T04:21:45.802Z,77.68
2023-01-07T04:24:12.853Z,85.97
2023-01-07T04:26:39.968Z,90.07
2023-01-07T04:29:07.044Z,78.00
2023-01-07T04:31:34.439Z,74.75
2023-01-07T04:34:01.462Z,78.45
2023-01-07T04:36:30.149Z,67.65
2023-01-07T04:38:57.083Z,61.28
2023-01-07T04:41:24.232Z,65.30
2023-01-07T04:43:53.870Z,64.22
2023-01-07T04:46:20.942Z,69.30
2023-01-07T04:48:48.094Z,63.88
2023-01-07T04:51:15.128Z,60.35
2023-01-07T04:53:42.067Z,60.72
2023-01-07T04:56:09.591Z,61.35
2023-01-07T04:58:36.558Z,57.88
2023-01-07T05:01:04.261Z,61.65
2023-01-07T05:03:31.914Z,53.47
2023-01-07T05:05:58.987Z,48.00
2023-01-07T05:08:25.957Z,44.40
2023-01-07T05:10:53.675Z,53.28
2023-01-07T05:13:23.269Z,53.38
2023-01-07T05:15:51.048Z,45.70
2023-01-07T05:18:18.157Z,40.03
2023-01-07T05:20:47.874Z,53.40
2023-01-07T05:23:14.958Z,60.53
2023-01-07T05:25:42.697Z,61.80
2023-01-07T05:28:10.136Z,48.90
2023-01-07T05:30:38.242Z,54.97
2023-01-07T05:33:07.391Z,52.38
2023-01-07T05:35:35.537Z,48.47
2023-01-07T05:38:02.746Z,25.92
2023-01-07T05:40:29.800Z,35.50
2023-01-07T05:42:56.874Z,37.97
2023-01-07T05:45:24.091Z,52.90
2023-01-07T05:47:51.153Z,51.40
2023-01-07T05:50:18.274Z,59.35
2023-01-07T05:52:45.359Z,60.80
2023-01-07T05:55:12.429Z,62.22
2023-01-07T05:57:39.489Z,63.50
2023-01-07T06:00:07.500Z,69.50
2023-01-07T06:02:34.644Z,60.65
2023-01-07T06:05:01.714Z,65.82
2023-01-07T06:07:28.872Z,50.08
2023-01-07T06:09:55.931Z,47.10
2023-01-07T06:12:22.976Z,45.83
2023-01-07T06:14:50.097Z,39.33
2023-01-07T06:17:17.156Z,39.75
2023-01-07T06:19:44.302Z,49.88
2023-01-07T06:22:11.346Z,47.90
2023-01-07T06:24:38.569Z,42.75
2023-01-07T06:27:05.654Z,37.45
2023-01-07T06:29:32.759Z,41.33
2023-01-07T06:31:59.875Z,50.50
2023-01-07T06:34:26.975Z,54.03
2023-01-07T06:36:54.142Z,54.17
2023-01-07T06:39:21.211Z,59.67
2023-01-07T06:41:48.299Z,49.42
2023-01-07T06:44:15.409Z,54.25
2023-01-07T06:46:42.504Z,67.07
2023-01-07T06:49:09.556Z,64.75
2023-01-07T06:51:36.585Z,43.45
2023-01-07T06:54:03.694Z,37.67
2023-01-07T06:56:30.680Z,56.03
2023-01-07T06:58:57.717Z,56.55
2023-01-07T07:01:25.093Z,56.83
2023-01-07T07:03:52.317Z,58.45
2023-01-07T07:06:19.413Z,59.17
2023-01-07T07:08:46.398Z,65.22
2023-01-07T07:11:13.435Z,57.13
2023-01-07T07:13:40.409Z,57.55
2023-01-07T07:16:08.211Z,57.15
2023-01-07T07:18:35.347Z,57.95
2023-01-07T07:21:02.461Z,58.13
2023-01-07T07:23:29.607Z,61.13
2023-01-07T07:25:56.583Z,58.83
2023-01-07T07:28:23.606Z,55.13
2023-01-07T07:30:50.647Z,58.20
2023-01-07T07:33:19.688Z,63.53
2023-01-07T07:35:47.138Z,69.05
2023-01-07T07:38:14.462Z,67.95
2023-01-07T07:40:41.502Z,70.53
2023-01-07T07:43:11.849Z,70.30
2023-01-07T07:45:43.643Z,48.83
2023-01-07T07:48:13.563Z,46.33
2023-01-07T07:50:40.567Z,59.53
2023-01-07T07:53:10.343Z,61.30
2023-01-07T07:55:38.479Z,73.03
2023-01-07T07:58:06.505Z,92.18
2023-01-07T08:00:33.633Z,84.15
2023-01-07T08:03:01.437Z,91.03
2023-01-07T08:05:29.191Z,86.10
2023-01-07T08:07:56.775Z,77.43
2023-01-07T08:10:24.948Z,73.35
2023-01-07T08:12:52.020Z,73.32
2023-01-07T08:15:19.209Z,67.13
2023-01-07T08:17:46.328Z,64.63
2023-01-07T08:20:14.798Z,60.28
2023-01-07T08:22:41.816Z,54.50
2023-01-07T08:25:09.374Z,57.30
2023-01-07T08:27:39.088Z,53.28
2023-01-07T08:30:06.623Z,52.13
2023-01-07T08:32:33.677Z,53.03
2023-01-07T08:35:00.763Z,55.22
2023-01-07T08:37:30.478Z,54.90
2023-01-07T08:39:57.431Z,50.90
2023-01-07T08:42:24.568Z,45.83
2023-01-07T08:44:51.617Z,43.03
2023-01-07T08:47:18.637Z,41.00
2023-01-07T08:49:45.752Z,45.33
2023-01-07T08:52:12.736Z,45.03
2023-01-07T08:54:40.279Z,49.85
2023-01-07T08:57:07.320Z,43.60
2023-01-07T08:59:34.279Z,51.15
2023-01-07T09:02:01.439Z,47.55
2023-01-07T09:04:28.539Z,45.85
2023-01-07T09:06:57.173Z,49.90
2023-01-07T09:09:24.249Z,51.67
2023-01-07T09:11:51.181Z,47.85
2023-01-07T09:14:18.188Z,45.72
2023-01-07T09:16:45.224Z,46.13
2023-01-07T09:19:12.345Z,45.75
2023-01-07T09:21:39.468Z,38.33
2023-01-07T09:24:06.611Z,34.97
2023-01-07T09:26:33.910Z,38.50
2023-01-07T09:29:00.919Z,35.25
2023-01-07T09:31:28.088Z,31.77
2023-01-07T09:33:55.502Z,36.30
2023-01-07T09:36:22.473Z,44.03
2023-01-07T09:38:49.512Z,44.00
2023-01-07T09:41:46.734Z,43.95
2023-01-07T09:44:41.463Z,44.63
2023-01-07T09:47:09.896Z,34.10
2023-01-07T09:49:37.280Z,34.47
2023-01-07T09:52:18.135Z,34.63
2023-01-07T09:54:48.853Z,45.70
2023-01-07T09:57:18.003Z,46.00
2023-01-07T09:59:46.137Z,44.42
2023-01-07T10:02:34.287Z,46.03
2023-01-07T10:05:19.929Z,47.55
2023-01-07T10:08:28.792Z,56.70
2023-01-07T10:11:22.550Z,65.18
2023-01-07T10:14:07.735Z,72.85
2023-01-07T10:17:25.002Z,59.30
2023-01-07T10:19:58.041Z,49.83
2023-01-07T10:25:06.714Z,47.28
2023-01-07T10:27:38.020Z,48.70
2023-01-07T10:30:11.676Z,37.45
2023-01-07T10:32:38.837Z,42.17
2023-01-07T10:35:15.132Z,39.97
2023-01-07T10:37:43.749Z,42.88
2023-01-07T10:40:30.595Z,35.50
2023-01-07T10:43:35.327Z,35.63
2023-01-07T10:46:23.478Z,34.78
2023-01-07T10:49:31.516Z,34.08
2023-01-07T10:52:04.318Z,40.17
2023-01-07T10:54:34.421Z,37.13
2023-01-07T10:57:08.223Z,37.47
2023-01-07T10:59:36.685Z,34.25
2023-01-07T11:02:05.068Z,34.25
2023-01-07T11:04:32.233Z,26.98
2023-01-07T11:07:18.601Z,25.92
2023-01-07T11:09:47.407Z,28.63
2023-01-07T11:12:36.167Z,31.65
2023-01-07T11:15:13.870Z,31.40
2023-01-07T11:17:52.460Z,32.40
2023-01-07T11:20:57.531Z,39.95
2023-01-07T11:23:42.784Z,39.30
2023-01-07T11:26:18.982Z,35.10
2023-01-07T11:28:52.118Z,39.42
2023-01-07T11:31:20.222Z,35.83
2023-01-07T11:34:02.473Z,38.40
2023-01-07T11:36:42.211Z,37.70
2023-01-07T11:39:25.830Z,35.50
2023-01-07T11:42:00.328Z,37.83
2023-01-07T11:44:27.893Z,38.92
2023-01-07T11:46:55.362Z,35.90
2023-01-07T11:49:30.908Z,33.95
2023-01-07T11:51:58.692Z,34.08
2023-01-07T11:54:28.863Z,35.15
2023-01-07T11:57:25.735Z,33.90
2023-01-07T12:00:13.698Z,36.13
2023-01-07T12:02:41.133Z,36.58
2023-01-07T12:05:21.728Z,35.95
2023-01-07T12:07:50.857Z,33.70
2023-01-07T12:10:44.381Z,33.47
2023-01-07T12:13:21.978Z,34.42
2023-01-07T12:15:52.926Z,35.00
2023-01-07T12:18:26.368Z,34.95
2023-01-07T12:21:18.381Z,34.25
2023-01-07T12:24:00.941Z,33.33
2023-01-07T12:27:12.585Z,15.93
2023-01-07T12:30:01.929Z,10.15
2023-01-07T12:32:52.218Z,10.40
2023-01-07T12:35:33.280Z,11.85
2023-01-07T12:38:19.529Z,11.10
2023-01-07T12:41:00.689Z,11.40
2023-01-07T12:44:02.652Z,10.27
2023-01-07T12:46:44.713Z,11.35
2023-01-07T12:49:21.315Z,12.10
2023-01-07T12:52:01.396Z,9.45
2023-01-07T12:54:34.832Z,9.18
2023-01-07T12:57:23.687Z,9.70
2023-01-07T13:00:16.142Z,10.00
2023-01-07T13:03:10.414Z,13.65
2023-01-07T13:05:44.312Z,9.30
2023-01-07T13:08:38.310Z,10.23
2023-01-07T13:11:43.724Z,9.70
2023-01-07T13:14:37.689Z,10.40
2023-01-07T13:17:17.272Z,11.00
2023-01-07T13:19:44.743Z,10.43
2023-01-07T13:22:18.167Z,10.73
2023-01-07T13:25:12.699Z,10.27
2023-01-07T13:28:02.209Z,10.27
2023-01-07T13:30:34.784Z,10.98
2023-01-07T13:33:29.458Z,10.48
2023-01-07T13:36:15.118Z,10.55
2023-01-07T13:39:00.109Z,10.13
2023-01-07T13:41:52.532Z,12.52
2023-01-07T13:44:55.655Z,9.93
2023-01-07T13:47:25.075Z,9.82
2023-01-07T13:50:02.696Z,10.15
2023-01-07T13:52:32.732Z,11.07
2023-01-07T13:55:03.188Z,11.20
2023-01-07T13:57:30.231Z,9.48
2023-01-07T14:00:01.722Z,9.02
2023-01-07T14:02:29.630Z,8.10
2023-01-07T14:05:26.892Z,7.78
2023-01-07T14:08:01.154Z,8.80
2023-01-07T14:10:37.963Z,11.77
2023-01-07T14:13:32.124Z,9.48
2023-01-07T14:16:20.230Z,7.60
2023-01-07T14:19:06.864Z,8.05
2023-01-07T14:21:57.440Z,7.97
2023-01-07T14:24:27.196Z,8.75
2023-01-07T14:27:06.387Z,10.35
2023-01-07T14:29:48.855Z,9.95
2023-01-07T14:32:32.741Z,8.77
2023-01-07T14:35:02.048Z,11.07
2023-01-07T14:37:33.283Z,10.02
2023-01-07T14:40:00.950Z,9.18
2023-01-07T14:42:44.745Z,9.63
2023-01-07T14:45:36.242Z,12.30
2023-01-07T14:48:09.432Z,12.60
2023-01-07T14:50:58.006Z,10.85
2023-01-07T14:54:02.397Z,12.95
2023-01-07T14:56:53.139Z,12.98
2023-01-07T14:59:27.997Z,20.33
2023-01-07T15:02:02.499Z,20.33
2023-01-07T15:04:30.853Z,18.63
2023-01-07T15:07:00.740Z,22.67
2023-01-07T15:10:03.332Z,23.00
2023-01-07T15:12:53.083Z,21.67
2023-01-07T15:15:43.843Z,22.92
2023-01-07T15:18:12.156Z,22.33
2023-01-07T15:21:03.106Z,20.88
2023-01-07T15:23:30.051Z,20.63
2023-01-07T15:26:16.100Z,27.25
2023-01-07T15:28:49.244Z,31.17
2023-01-07T15:31:51.793Z,31.23
2023-01-07T15:34:20.230Z,37.80
2023-01-07T15:36:52.211Z,42.03
2023-01-07T15:39:31.157Z,48.00
2023-01-07T15:41:58.483Z,50.65
2023-01-07T15:44:32.524Z,55.58
2023-01-07T15:46:59.687Z,60.15
2023-01-07T15:49:28.204Z,71.60
2023-01-07T15:51:57.681Z,62.88
2023-01-07T15:54:35.007Z,53.75
2023-01-07T15:57:17.255Z,50.72
2023-01-07T15:59:47.619Z,51.60
2023-01-07T16:02:37.795Z,51.72
2023-01-07T16:05:06.437Z,56.47
2023-01-07T16:07:40.559Z,60.53
2023-01-07T16:10:18.629Z,51.22
2023-01-07T16:12:50.184Z,39.28
2023-01-07T16:15:30.806Z,48.28
2023-01-07T16:18:02.991Z,47.42
2023-01-07T16:20:36.375Z,60.03
2023-01-07T16:23:09.215Z,72.82
2023-01-07T16:26:04.025Z,66.50
2023-01-07T16:28:40.588Z,38.33
2023-01-07T16:31:13.728Z,55.47
2023-01-07T16:36:45.015Z,52.95
2023-01-07T16:39:31.588Z,47.13
2023-01-07T16:42:20.133Z,62.38
2023-01-07T16:45:04.514Z,52.92
2023-01-07T16:47:42.196Z,54.45
2023-01-07T16:50:15.424Z,51.22
2023-01-07T16:56:17.876Z,53.58
2023-01-07T16:58:53.623Z,59.67
2023-01-07T17:01:31.299Z,61.55
2023-01-07T17:04:09.403Z,53.13
2023-01-07T17:06:43.464Z,58.58
2023-01-07T17:09:22.401Z,77.35
2023-01-07T17:11:52.049Z,74.22
2023-01-07T17:14:34.204Z,66.47
2023-01-07T17:17:01.977Z,66.90
2023-01-07T17:19:38.620Z,56.25
2023-01-07T17:22:29.702Z,54.88
2023-01-07T17:25:05.122Z,47.30
2023-01-07T17:27:32.707Z,57.22
2023-01-07T17:30:03.018Z,48.40
2023-01-07T17:32:31.307Z,44.42
2023-01-07T17:35:05.313Z,42.58
2023-01-07T17:37:33.788Z,38.85
2023-01-07T17:40:01.134Z,40.47
2023-01-07T17:42:51.464Z,38.30
2023-01-07T17:45:20.626Z,38.53
2023-01-07T17:47:50.373Z,40.13
2023-01-07T17:50:19.341Z,38.85
2023-01-07T17:52:49.405Z,36.28
2023-01-07T17:55:25.270Z,42.35
2023-01-07T17:57:53.053Z,42.78
2023-01-07T18:00:23.270Z,38.58
2023-01-07T18:02:51.120Z,43.08
2023-01-07T18:05:22.816Z,45.10
2023-01-07T18:07:51.488Z,40.90
2023-01-07T18:10:28.869Z,42.10
2023-01-07T18:12:55.943Z,47.05
2023-01-07T18:15:26.234Z,38.88
2023-01-07T18:17:53.751Z,88.05
2023-01-07T18:20:22.692Z,167.75
2023-01-07T18:22:50.769Z,181.38
2023-01-07T18:25:22.498Z,199.00
2023-01-07T18:27:52.941Z,162.43
2023-01-07T18:30:22.350Z,191.88
2023-01-07T18:32:51.724Z,158.07
2023-01-07T18:35:19.312Z,143.15
2023-01-07T18:37:50.076Z,114.18
2023-01-07T18:40:17.423Z,78.43
2023-01-07T18:42:44.655Z,67.93
2023-01-07T18:45:12.563Z,45.75
2023-01-07T18:47:39.847Z,51.25
2023-01-07T18:50:08.287Z,58.55
2023-01-07T18:52:37.567Z,49.55
2023-01-07T18:55:05.572Z,46.55
2023-01-07T18:57:32.549Z,40.72
2023-01-07T18:59:59.668Z,52.88
2023-01-07T19:02:26.918Z,40.13
2023-01-07T19:04:54.017Z,57.15
2023-01-07T19:07:21.828Z,49.45
2023-01-07T19:09:49.906Z,38.95
2023-01-07T19:12:20.361Z,58.70
2023-01-07T19:14:48.489Z,81.43
2023-01-07T19:17:15.987Z,69.25
2023-01-07T19:19:48.443Z,123.68
2023-01-07T19:22:20.199Z,56.92
2023-01-07T19:24:47.314Z,78.93
2023-01-07T19:27:14.541Z,68.32
2023-01-07T19:29:42.676Z,44.15
2023-01-07T19:32:09.805Z,47.65
2023-01-07T19:34:36.755Z,39.60
2023-01-07T19:37:03.758Z,36.15
2023-01-07T19:39:30.808Z,36.58
2023-01-07T19:41:57.786Z,35.10
2023-01-07T19:44:24.914Z,38.70
2023-01-07T19:46:52.072Z,44.38
2023-01-07T19:49:19.081Z,48.40
2023-01-07T19:51:46.155Z,50.90
2023-01-07T19:54:25.120Z,72.60
2023-01-07T19:56:53.485Z,63.53
2023-01-07T19:59:22.500Z,90.43
2023-01-07T20:01:50.263Z,101.07
2023-01-07T20:04:17.408Z,94.97
2023-01-07T20:06:47.579Z,87.32
2023-01-07T20:09:14.760Z,71.22
2023-01-07T20:11:43.105Z,65.05
2023-01-07T20:14:12.193Z,79.82
2023-01-07T20:16:42.367Z,84.32
2023-01-07T20:19:13.653Z,87.93
2023-01-07T20:21:40.779Z,85.80
2023-01-07T20:24:08.454Z,107.07
2023-01-07T20:26:38.494Z,137.90
2023-01-07T20:29:05.637Z,137.38
2023-01-07T20:31:39.866Z,141.65
2023-01-07T20:34:07.466Z,64.75
2023-01-07T20:36:34.607Z,65.72
2023-01-07T20:39:06.394Z,53.08
2023-01-07T20:41:35.324Z,54.35
2023-01-07T20:44:03.969Z,83.80
2023-01-07T20:46:32.252Z,46.90
2023-01-07T20:49:05.930Z,31.23
2023-01-07T20:51:34.268Z,37.72
2023-01-07T20:54:01.704Z,51.10
2023-01-07T20:56:32.665Z,42.85
2023-01-07T20:59:01.730Z,50.95
2023-01-07T21:01:29.994Z,59.50
2023-01-07T21:03:57.627Z,49.85
2023-01-07T21:06:24.902Z,65.70
2023-01-07T21:08:52.829Z,102.78
2023-01-07T21:11:22.799Z,84.85
2023-01-07T21:13:52.640Z,75.75
2023-01-07T21:16:20.163Z,100.00
2023-01-07T21:18:47.490Z,99.05
2023-01-07T21:21:17.619Z,105.15
2023-01-07T21:23:46.890Z,66.22
2023-01-07T21:26:15.280Z,78.32
2023-01-07T21:28:44.661Z,68.40
2023-01-07T21:31:14.145Z,60.35
2023-01-07T21:33:41.813Z,50.38
2023-01-07T21:36:13.516Z,52.47
2023-01-07T21:38:40.880Z,40.25
2023-01-07T21:41:18.616Z,40.28
2023-01-07T21:43:46.214Z,45.00
2023-01-07T21:46:14.652Z,47.28
2023-01-07T21:48:46.652Z,45.08
2023-01-07T21:51:22.417Z,36.55
2023-01-07T21:53:52.227Z,39.60
2023-01-07T21:56:19.797Z,42.40
2023-01-07T21:59:06.369Z,38.10
2023-01-07T22:01:33.544Z,30.77
2023-01-07T22:04:01.580Z,29.42
2023-01-07T22:06:31.654Z,26.90
2023-01-07T22:09:02.996Z,30.10
2023-01-07T22:11:30.408Z,37.47
2023-01-07T22:13:59.963Z,39.83
2023-01-07T22:16:29.795Z,40.20
2023-01-07T22:18:57.684Z,35.20
2023-01-07T22:21:24.980Z,38.67
2023-01-07T22:23:52.295Z,37.75
2023-01-07T22:26:20.669Z,31.45
2023-01-07T22:28:54.630Z,29.67
2023-01-07T22:31:41.974Z,33.28
2023-01-07T22:34:09.906Z,29.27
2023-01-07T22:37:06.370Z,27.55
2023-01-07T22:39:40.100Z,31.40
2023-01-07T22:42:12.314Z,27.15
2023-01-07T22:44:49.014Z,29.50
2023-01-07T22:47:20.000Z,35.45
2023-01-07T22:49:48.532Z,33.60
2023-01-07T22:52:15.650Z,34.17
2023-01-07T22:54:42.775Z,30.83
2023-01-07T22:57:12.471Z,30.33
2023-01-07T22:59:39.533Z,32.25
2023-01-07T23:02:06.653Z,28.65
2023-01-07T23:04:33.724Z,33.67
2023-01-07T23:07:00.819Z,26.13
2023-01-07T23:09:27.912Z,32.05
2023-01-07T23:11:59.451Z,26.17
2023-01-07T23:14:27.675Z,31.75
2023-01-07T23:16:55.149Z,31.23
2023-01-07T23:19:22.631Z,30.23
2023-01-07T23:21:52.968Z,34.05
2023-01-07T23:24:20.729Z,28.13
2023-01-07T23:26:49.502Z,34.70
2023-01-07T23:29:17.188Z,30.85
2023-01-07T23:31:44.536Z,30.33
2023-01-07T23:34:12.079Z,30.15
2023-01-07T23:36:39.388Z,32.85
2023-01-07T23:39:06.765Z,30.90
2023-01-07T23:41:33.807Z,27.55
2023-01-07T23:44:00.794Z,26.98
2023-01-07T23:46:27.759Z,23.33
2023-01-07T23:48:54.873Z,30.02
2023-01-07T23:51:22.174Z,27.02
2023-01-07T23:53:49.615Z,36.03
2023-01-07T23:56:21.046Z,32.47
2023-01-07T23:58:49.656Z,35.47
